Turbeville, Virginia
Current Conditions -  °F | °C
As of 1:55 PM on Sunday 23 Nov 2014 (Local Time) from KW78 Reporting Station
Overcast Overcast  
Wind Chill: 48°   Ceiling: 11000
Heat Index: 48°   Visibility: 10mi
Dew Point: 34°   Wind: 0mph
Humidity: 58%   Direction: NA
Pressure: 30.09"   Gusts: NA
Location:  36.7012°N, 79.0269°W
Report Text: KW78 231855Z AUTO 00000KT 10SM SCT070 OVC110 09/01 A3009 RMK AO1 T00910012
Loading
Personal Weather Stations






























Interactive Weather Map New forecast layout! Learn more

10-Day Weather Forecast

Advertisements
Track Severe Weather on mobile